Latest Weather Observations for Sydney Olympic Park

IDN60901

Issued at 9:41 pm EST Sunday 26 June 2016 (issued every 10 minutes, with the page automatically refreshed every 10 minutes)

About weather observations | Map of Sydney area stations | Latest observations for Sydney area | Other Formats
Station Details ID: 066212 Name: SYDNEY OLYMPIC PARK AWS (ARCHERY CENTRE) Lat: -33.83 Lon: 151.07 Height: 4.0 m
Data from the previous 72 hours. | See also: Recent months at Sydney Olympic Park
Date/Time
EST
Temp
°C
App
Temp
°C
Dew
Point
°C
Rel
Hum
%
Delta-T
°C
Wind Press
QNH
hPa
Press
MSL
hPa
Rain since
9am
mm
Dir  Spd
km/h
Gust
km/h
Spd
kts
Gust
kts
26/09:30pm 8.1 7.3 6.7 91 0.6 CALM 0 0 0 0 - - 0.0
26/09:00pm 8.2 7.4 6.7 90 0.7 CALM 0 0 0 0 - - 0.0
26/08:30pm 8.1 7.3 6.6 90 0.7 CALM 0 0 0 0 - - 0.0
26/08:00pm 8.2 6.9 6.0 86 1.0 N 2 6 1 3 - - 0.0
26/07:30pm 8.6 7.9 7.1 90 0.7 CALM 0 0 0 0 - - 0.0
26/07:00pm 8.6 7.8 6.4 86 1.0 CALM 0 0 0 0 - - 0.0
26/06:30pm 9.1 8.4 7.1 87 0.9 CALM 0 0 0 0 - - 0.0
26/06:00pm 9.3 8.5 6.4 82 1.3 CALM 0 0 0 0 - - 0.0
26/05:30pm 9.9 9.0 6.1 77 1.8 CALM 0 0 0 0 - - 0.0
26/05:00pm 10.9 10.3 7.4 79 1.7 CALM 0 0 0 0 - - 0.0
26/04:30pm 11.8 11.0 6.3 69 2.6 CALM 0 0 0 0 - - 0.0
26/04:00pm 13.9 13.1 6.5 61 3.6 CALM 0 0 0 0 - - 0.0
26/03:30pm 13.1 10.6 4.5 56 3.9 NW 7 9 4 5 - - 0.0
26/03:00pm 14.3 12.5 5.4 55 4.2 NW 4 7 2 4 - - 0.0
26/02:30pm 13.9 11.4 4.5 53 4.3 NW 7 11 4 6 - - 0.0
26/02:00pm 15.2 12.4 3.4 45 5.4 NW 7 11 4 6 - - 0.0
26/01:30pm 14.1 11.5 4.4 52 4.5 NW 7 11 4 6 - - 0.0
26/01:00pm 13.8 11.1 2.7 47 4.9 WNW 6 9 3 5 - - 0.0
26/12:30pm 14.2 11.8 4.2 51 4.6 WNW 6 9 3 5 - - 0.0
26/12:00pm 12.7 9.9 3.1 52 4.2 W 7 11 4 6 - - 0.0
26/11:30am 12.9 10.0 4.6 57 3.8 WNW 9 13 5 7 - - 0.0
26/11:00am 12.3 9.2 3.8 56 3.8 WNW 9 13 5 7 - - 0.0
26/10:30am 11.0 7.0 3.1 58 3.4 WNW 13 19 7 10 - - 0.0
26/10:00am 10.5 6.5 3.1 60 3.2 WNW 13 19 7 10 - - 0.0
26/09:30am 8.7 4.9 1.6 61 2.9 WNW 11 17 6 9 - - 0.0
26/09:00am 8.5 5.2 2.5 66 2.5 WNW 9 13 5 7 - - 0.0
26/08:30am 6.3 3.3 1.8 73 1.8 WNW 7 11 4 6 - - 0.0
26/08:00am 4.3 0.9 1.7 83 1.0 WNW 9 13 5 7 - - 0.0
26/07:30am 3.2 -0.3 1.3 87 0.7 WNW 9 15 5 8 - - 0.0
26/07:00am 2.8 0.2 1.0 88 0.7 WNW 4 9 2 5 - - 0.0
26/06:30am 2.7 -0.5 0.9 88 0.7 WNW 7 9 4 5 - - 0.0
26/06:00am 3.0 -0.2 0.7 85 0.9 WNW 7 11 4 6 - - 0.0
26/05:30am 3.3 0.2 1.3 87 0.8 NW 7 11 4 6 - - 0.0
26/05:00am 3.4 0.5 1.4 87 0.8 NW 6 9 3 5 - - 0.0
26/04:30am 3.9 1.4 1.8 86 0.8 WNW 4 7 2 4 - - 0.0
26/04:00am 4.3 1.4 1.5 82 1.1 W 6 13 3 7 - - 0.0
26/03:30am 4.4 1.3 1.6 82 1.1 WNW 7 13 4 7 - - 0.0
26/03:00am 4.0 0.6 2.0 87 0.8 WNW 9 11 5 6 - - 0.0
26/02:30am 4.0 1.0 2.2 88 0.7 WNW 7 11 4 6 - - 0.0
26/02:00am 3.8 1.0 2.3 90 0.6 WNW 6 9 3 5 - - 0.0
26/01:30am 3.7 2.0 2.1 89 0.6 CALM 0 0 0 0 - - 0.0
26/01:00am 4.1 1.3 2.3 88 0.7 NW 6 9 3 5 - - 0.0
26/12:30am 4.3 2.7 2.3 87 0.8 CALM 0 6 0 3 - - 0.0
26/12:00am 4.8 1.8 2.2 83 1.0 WNW 7 11 4 6 - - 0.0
 
Date/Time
EST
Temp
°C
App
Temp
°C
Dew
Point
°C
Rel
Hum
%
Delta-T
°C
Wind Press
QNH
hPa
Press
MSL
hPa
Rain since
9am
mm
Dir  Spd
km/h
Gust
km/h
Spd
kts
Gust
kts
25/11:30pm 5.3 2.4 2.7 83 1.1 NW 7 9 4 5 - - 0.0
25/11:00pm 5.4 2.7 2.9 84 1.0 WNW 6 7 3 4 - - 0.0
25/10:30pm 5.8 3.8 2.1 77 1.5 NW 2 7 1 4 - - 0.0
25/10:00pm 6.0 3.2 1.9 75 1.7 WNW 6 9 3 5 - - 0.0
25/09:30pm 6.0 2.6 1.7 74 1.7 NW 9 11 5 6 - - 0.0
25/09:00pm 5.9 2.8 1.2 72 1.9 NW 7 9 4 5 - - 0.0
25/08:30pm 6.8 3.7 1.5 69 2.1 WNW 7 11 4 6 - - 0.0
25/08:00pm 7.4 4.5 1.3 65 2.5 W 6 9 3 5 - - 0.0
25/07:30pm 6.9 4.0 1.6 69 2.1 W 6 9 3 5 - - 0.0
25/07:00pm 7.5 5.8 1.8 67 2.3 CALM 0 0 0 0 - - 0.0
25/06:30pm 8.5 5.6 1.2 60 3.0 WSW 6 7 3 4 - - 0.0
25/06:00pm 7.7 5.3 2.0 67 2.3 WSW 4 7 2 4 - - 0.0
25/05:30pm 9.4 6.7 0.3 53 3.7 W 4 6 2 3 - - 0.0
25/05:00pm 11.9 8.0 -1.3 40 5.2 SW 9 15 5 8 - - 0.0
25/04:30pm 12.8 8.5 -1.5 37 5.7 SSW 11 19 6 10 - - 0.0
25/04:00pm 13.9 9.8 -0.2 38 5.9 WSW 11 17 6 9 - - 0.0
25/03:30pm 14.3 10.3 0.2 38 5.9 WSW 11 20 6 11 - - 0.0
25/03:00pm 14.3 10.2 -0.2 37 6.1 WSW 11 19 6 10 - - 0.0
25/02:30pm 14.4 10.3 -0.1 37 6.1 SSW 11 17 6 9 - - 0.0
25/02:00pm 14.3 9.9 0.2 38 5.9 SW 13 20 7 11 - - 0.0
25/01:30pm 13.8 9.0 0.1 39 5.7 SSW 15 28 8 15 - - 0.0
25/01:00pm 13.8 9.0 0.1 39 5.7 SW 15 30 8 16 - - 0.0
25/12:30pm 13.5 8.6 -0.2 39 5.7 SW 15 26 8 14 - - 0.0
25/12:00pm 12.9 7.6 -0.7 39 5.5 WSW 17 26 9 14 - - 0.0
25/11:30am 12.4 7.1 -0.5 41 5.2 SW 17 28 9 15 - - 0.0
25/11:00am 11.9 6.6 -0.6 42 5.0 WSW 17 28 9 15 - - 0.0
25/10:30am 11.4 6.8 -0.7 43 4.8 WSW 13 28 7 15 - - 0.0
25/10:00am 10.9 6.6 1.2 51 4.0 W 13 26 7 14 - - 0.0
25/09:30am 9.9 5.0 -0.3 49 4.1 W 15 24 8 13 - - 0.0
25/09:00am 9.0 4.5 -0.6 51 3.8 WNW 13 26 7 14 - - 0.6
25/08:30am 8.1 4.3 -0.4 55 3.3 W 9 17 5 9 - - 0.6
25/08:00am 7.0 3.3 0.2 62 2.7 WNW 9 15 5 8 - - 0.6
25/07:30am 6.0 2.6 -0.5 63 2.5 WNW 7 13 4 7 - - 0.6
25/07:00am 5.6 1.8 -0.4 65 2.3 NW 9 15 5 8 - - 0.6
25/06:30am 6.9 2.7 -0.8 58 2.9 WNW 11 20 6 11 - - 0.6
25/06:00am 7.3 2.7 -0.9 56 3.1 W 13 22 7 12 - - 0.6
25/05:30am 7.5 2.6 -0.7 56 3.2 W 15 28 8 15 - - 0.6
25/05:00am 7.8 2.5 -0.7 55 3.3 WNW 17 30 9 16 - - 0.6
25/04:30am 8.0 3.1 -0.5 55 3.3 W 15 28 8 15 - - 0.6
25/04:00am 8.3 2.6 -0.4 54 3.4 W 19 35 10 19 - - 0.6
25/03:30am 8.4 3.1 -0.6 53 3.5 W 17 35 9 19 - - 0.6
25/03:00am 8.6 2.9 -0.4 53 3.5 W 19 30 10 16 - - 0.6
25/02:30am 8.4 3.9 -0.4 54 3.4 W 13 26 7 14 - - 0.6
25/02:00am 7.7 3.4 0.7 61 2.8 WNW 13 20 7 11 - - 0.6
25/01:30am 8.1 4.0 0.1 57 3.2 W 11 19 6 10 - - 0.6
25/01:00am 8.3 4.2 0.1 56 3.2 WNW 11 17 6 9 - - 0.6
25/12:30am 8.8 4.0 0.3 55 3.4 W 15 24 8 13 - - 0.6
25/12:00am 8.8 3.7 0.8 57 3.2 WNW 17 28 9 15 - - 0.6
 
Date/Time
EST
Temp
°C
App
Temp
°C
Dew
Point
°C
Rel
Hum
%
Delta-T
°C
Wind Press
QNH
hPa
Press
MSL
hPa
Rain since
9am
mm
Dir  Spd
km/h
Gust
km/h
Spd
kts
Gust
kts
24/11:30pm 9.0 4.6 0.5 55 3.4 W 13 26 7 14 - - 0.6
24/11:00pm 8.6 4.6 0.3 56 3.3 WNW 11 17 6 9 - - 0.6
24/10:30pm 9.0 5.0 0.5 55 3.4 WNW 11 15 6 8 - - 0.6
24/10:00pm 9.6 5.2 0.5 53 3.7 W 13 26 7 14 - - 0.6
24/09:30pm 9.8 5.1 0.7 53 3.7 WNW 15 24 8 13 - - 0.6
24/09:00pm 10.0 4.5 0.6 52 3.8 W 19 30 10 16 - - 0.6
24/08:30pm 9.8 5.1 0.9 54 3.6 W 15 30 8 16 - - 0.6
24/08:00pm 10.0 4.6 1.4 55 3.6 WNW 19 35 10 19 - - 0.6
24/07:30pm 9.7 4.8 2.3 60 3.1 WNW 17 37 9 20 - - 0.6
24/07:00pm 9.3 4.5 2.6 63 2.8 WNW 17 24 9 13 - - 0.6
24/06:30pm 9.1 6.4 2.9 65 2.6 W 6 9 3 5 - - 0.6
24/06:00pm 9.5 5.2 3.0 64 2.8 NW 15 28 8 15 - - 0.6
24/05:30pm 9.8 4.5 2.9 62 3.0 NW 20 35 11 19 - - 0.6
24/05:00pm 10.6 5.2 2.4 57 3.5 WNW 20 37 11 20 - - 0.6
24/04:30pm 11.6 5.6 3.4 57 3.6 NW 24 44 13 24 - - 0.6
24/04:00pm 12.7 5.7 1.7 47 4.7 WNW 28 46 15 25 - - 0.6
24/03:57pm 12.9 5.9 1.9 47 4.7 WNW 28 46 15 25 - - 0.6
24/03:30pm 13.6 8.0 1.3 43 5.3 W 20 37 11 20 - - 0.6
24/03:00pm 14.7 8.6 2.9 45 5.3 WNW 24 44 13 24 - - 0.6
24/02:30pm 14.8 6.9 2.0 42 5.6 WNW 33 54 18 29 - - 0.6
24/02:02pm 15.7 8.4 2.2 40 6.0 WNW 30 48 16 26 - - 0.6
24/02:00pm 15.7 8.2 1.4 38 6.3 WNW 30 43 16 23 - - 0.6
24/01:32pm 15.9 8.9 2.0 39 6.2 WNW 28 48 15 26 - - 0.6
24/01:30pm 15.9 8.6 2.7 41 5.9 WNW 30 44 16 24 - - 0.6
24/01:00pm 15.9 8.8 1.2 37 6.4 WNW 28 50 15 27 - - 0.6
24/12:54pm 15.9 8.9 2.0 39 6.2 WNW 28 50 15 27 - - 0.6
24/12:30pm 16.5 10.8 4.9 46 5.5 WNW 24 41 13 22 - - 0.6
24/12:00pm 16.2 11.2 4.6 46 5.5 WNW 20 35 11 19 - - 0.6
24/11:30am 15.8 11.2 6.3 53 4.6 WNW 20 32 11 17 - - 0.6
24/11:00am 14.3 11.2 7.1 62 3.5 WNW 13 20 7 11 - - 0.6
24/10:30am 12.9 9.8 7.1 68 2.8 NW 13 20 7 11 - - 0.6
24/10:00am 12.8 12.1 10.0 83 1.4 WNW 4 9 2 5 - - 0.6
24/09:46am 12.2 9.6 9.4 83 1.4 NW 13 19 7 10 - - 0.6
24/09:30am 13.2 9.6 8.3 72 2.4 W 17 26 9 14 - - 0.2
24/09:24am 14.4 11.4 7.5 63 3.4 W 13 26 7 14 - - 0.0
24/09:00am 16.9 12.7 7.3 53 4.8 NW 19 33 10 18 - - 0.0
24/08:30am 15.2 11.9 6.2 55 4.3 WNW 13 20 7 11 - - 0.0
24/08:00am 13.9 11.0 6.3 60 3.6 WNW 11 15 6 8 - - 0.0
24/07:30am 13.4 9.9 5.6 59 3.7 NW 13 19 7 10 - - 0.0
24/07:00am 13.2 9.5 6.1 62 3.4 NW 15 22 8 12 - - 0.0
24/06:30am 12.6 9.3 6.4 66 2.9 NW 13 22 7 12 - - 0.0
24/06:00am 12.1 8.8 6.6 69 2.6 NW 13 17 7 9 - - 0.0
24/05:30am 12.1 9.0 7.2 72 2.4 NW 13 20 7 11 - - 0.0
24/05:00am 11.8 9.4 8.5 80 1.6 NW 11 19 6 10 - - 0.0
24/04:30am 9.2 8.6 7.6 90 0.8 CALM 0 0 0 0 - - 0.0
24/04:00am 9.7 8.7 7.3 85 1.1 WNW 2 6 1 3 - - 0.0
24/03:30am 11.2 9.9 7.7 79 1.7 NE 4 9 2 5 - - 0.0
24/03:00am 11.9 11.4 8.0 77 1.9 CALM 0 0 0 0 - - 0.0
24/02:30am 13.4 10.5 8.3 71 2.5 NNW 13 20 7 11 - - 0.0
24/02:00am 13.7 10.5 8.3 70 2.7 NNW 15 20 8 11 - - 0.0
24/01:30am 14.0 10.8 8.6 70 2.7 NNW 15 24 8 13 - - 0.0
24/01:00am 14.2 10.3 8.8 70 2.7 NNW 19 24 10 13 - - 0.0
24/12:30am 13.8 10.0 9.0 73 2.4 NNW 19 28 10 15 - - 0.0
24/12:00am 12.7 10.7 8.8 77 2.0 NW 9 15 5 8 - - 0.0
 
Date/Time
EST
Temp
°C
App
Temp
°C
Dew
Point
°C
Rel
Hum
%
Delta-T
°C
Wind Press
QNH
hPa
Press
MSL
hPa
Rain since
9am
mm
Dir  Spd
km/h
Gust
km/h
Spd
kts
Gust
kts
23/11:30pm 13.0 10.5 8.1 72 2.4 N 11 15 6 8 - - 0.0
23/11:00pm 13.5 10.2 8.1 70 2.7 N 15 24 8 13 - - 0.0
23/10:30pm 13.7 10.7 7.9 68 2.9 N 13 20 7 11 - - 0.0
23/10:00pm 13.9 10.5 7.7 66 3.1 NNW 15 28 8 15 - - 0.0

Latest Capital City Observations: Canberra | Sydney | Melbourne | Brisbane | Adelaide | Perth | Hobart | Darwin

Other Formats:

Comma delimited format used in spreadsheet applications
http://www.bom.gov.au/fwo/IDN60901/IDN60901.95765.axf

JavaScript Object Notation format (JSON) in row-major order
http://www.bom.gov.au/fwo/IDN60901/IDN60901.95765.json